Time;durP1;ratioP1;P1;durP2;ratioP2;P2;SDS_P1;SDS_P2;PMS_P1;PMS_P2;Temp;Humidity;BMP_temperature;BMP_pressure;BME280_temperature;BME280_humidity;BME280_pressure;Samples;Min_cycle;Max_cycle;Signal;HPM_P1;HPM_P2
2023/04/24 00:01:39;;;;;;;1.55;0.63;;;12.60;99.90;;;;;;4995716;28;20109;-75
2023/04/24 00:04:06;;;;;;;1.65;0.60;;;12.60;99.90;;;;;;4994548;28;20026;-75
2023/04/24 00:06:33;;;;;;;1.30;0.30;;;12.60;99.90;;;;;;4995085;28;20038;-75
2023/04/24 00:09:03;;;;;;;2.65;0.60;;;12.60;99.90;;;;;;4994106;28;20100;-75
2023/04/24 00:11:29;;;;;;;1.27;0.60;;;12.60;99.90;;;;;;4995918;28;20053;-75
2023/04/24 00:13:55;;;;;;;1.63;0.50;;;12.60;99.90;;;;;;4993932;28;20030;-75
2023/04/24 00:16:21;;;;;;;0.40;0.30;;;12.70;99.90;;;;;;4995692;28;20023;-75
2023/04/24 00:18:47;;;;;;;0.68;0.50;;;12.70;99.90;;;;;;4995165;28;20040;-75
2023/04/24 00:21:13;;;;;;;1.65;0.50;;;12.70;99.90;;;;;;4994535;28;20022;-75
2023/04/24 00:23:39;;;;;;;1.58;0.70;;;12.70;99.90;;;;;;4995484;28;20103;-75
2023/04/24 00:26:05;;;;;;;0.98;0.40;;;12.70;99.90;;;;;;4995591;28;20109;-75
2023/04/24 00:28:30;;;;;;;0.80;0.40;;;12.80;99.90;;;;;;4995211;28;20046;-75
2023/04/24 00:30:56;;;;;;;1.70;0.50;;;12.70;99.90;;;;;;4994718;28;20101;-76
2023/04/24 00:33:21;;;;;;;3.05;0.50;;;12.70;99.90;;;;;;4994138;28;20037;-75
2023/04/24 00:35:47;;;;;;;4.00;0.60;;;12.70;99.90;;;;;;4993618;28;20026;-75
2023/04/24 00:38:13;;;;;;;0.40;0.40;;;12.70;99.90;;;;;;4994062;28;20029;-75
2023/04/24 00:40:38;;;;;;;3.97;0.50;;;12.60;99.90;;;;;;4994034;28;20034;-75
2023/04/24 00:43:04;;;;;;;0.60;0.40;;;12.70;99.90;;;;;;4993443;28;20022;-75
2023/04/24 00:45:31;;;;;;;0.70;0.45;;;12.70;99.90;;;;;;4994071;28;20031;-75
2023/04/24 00:47:57;;;;;;;1.52;0.50;;;12.70;99.90;;;;;;4994504;28;20131;-75
2023/04/24 00:50:24;;;;;;;0.93;0.30;;;12.70;99.90;;;;;;4994099;28;20039;-75
2023/04/24 00:52:50;;;;;;;1.73;0.40;;;12.70;99.90;;;;;;4993145;28;20457;-75
2023/04/24 00:55:16;;;;;;;1.70;0.50;;;12.70;99.90;;;;;;4995190;28;20023;-75
2023/04/24 00:57:43;;;;;;;1.50;0.50;;;12.70;99.90;;;;;;4994064;28;20486;-75
2023/04/24 01:00:12;;;;;;;0.68;0.40;;;12.60;99.90;;;;;;4993891;28;20569;-75
2023/04/24 01:02:44;;;;;;;1.33;0.55;;;12.70;99.90;;;;;;4994811;28;20029;-75
2023/04/24 01:05:14;;;;;;;0.95;0.40;;;12.70;99.90;;;;;;4993482;28;20085;-75
2023/04/24 01:07:45;;;;;;;2.80;1.00;;;12.70;99.90;;;;;;4994764;28;20371;-75
2023/04/24 01:10:11;;;;;;;1.48;0.70;;;12.70;99.90;;;;;;4993802;28;20105;-75
2023/04/24 01:12:37;;;;;;;1.75;0.40;;;12.70;99.90;;;;;;4993490;28;20034;-75
2023/04/24 01:15:03;;;;;;;1.00;0.50;;;12.60;99.90;;;;;;4993935;28;20034;-75
2023/04/24 01:17:29;;;;;;;3.05;0.73;;;12.60;99.90;;;;;;4993355;28;20049;-75
2023/04/24 01:19:56;;;;;;;0.82;0.45;;;12.60;99.90;;;;;;4993859;28;20468;-75
2023/04/24 01:22:22;;;;;;;0.95;0.50;;;12.70;99.90;;;;;;4994341;28;20033;-75
2023/04/24 01:24:48;;;;;;;1.05;0.35;;;12.70;99.90;;;;;;4992779;28;20117;-75
2023/04/24 01:27:14;;;;;;;0.70;0.30;;;12.70;99.90;;;;;;4993304;28;20065;-75
2023/04/24 01:29:39;;;;;;;1.20;0.50;;;12.70;99.90;;;;;;4994204;28;20034;-75
2023/04/24 01:32:05;;;;;;;1.88;0.43;;;12.80;99.90;;;;;;4992367;28;20034;-75
2023/04/24 01:34:31;;;;;;;1.20;0.50;;;12.70;99.90;;;;;;4992971;28;20453;-75
2023/04/24 01:36:57;;;;;;;1.10;0.60;;;12.70;99.90;;;;;;4992405;28;20027;-75
2023/04/24 01:39:25;;;;;;;1.20;0.45;;;12.70;99.90;;;;;;4993285;28;20037;-75
2023/04/24 01:41:51;;;;;;;1.58;0.60;;;12.70;99.90;;;;;;4993212;28;20037;-75
2023/04/24 01:44:17;;;;;;;3.70;0.50;;;12.80;99.90;;;;;;4992399;28;20022;-75
2023/04/24 01:46:43;;;;;;;1.08;0.55;;;12.80;99.90;;;;;;4992986;28;20117;-75
2023/04/24 01:49:09;;;;;;;2.13;0.60;;;12.70;99.90;;;;;;4992037;28;20477;-75
2023/04/24 01:51:34;;;;;;;4.30;0.70;;;12.70;99.90;;;;;;4993804;28;20508;-75
2023/04/24 01:54:00;;;;;;;1.10;0.50;;;12.60;99.90;;;;;;4992519;28;20541;-75
2023/04/24 01:56:29;;;;;;;0.77;0.40;;;12.60;99.90;;;;;;4993945;28;20026;-75
2023/04/24 01:58:55;;;;;;;2.67;0.55;;;12.60;99.90;;;;;;4992075;28;20030;-75
2023/04/24 02:01:21;;;;;;;2.65;0.47;;;12.60;99.90;;;;;;4993737;28;20022;-74
2023/04/24 02:03:47;;;;;;;2.95;0.65;;;12.50;99.90;;;;;;4991986;28;20081;-74
2023/04/24 02:06:12;;;;;;;1.65;0.60;;;12.50;99.90;;;;;;4993741;28;20030;-75
2023/04/24 02:08:38;;;;;;;2.10;0.68;;;12.50;99.90;;;;;;4992260;28;20041;-75
2023/04/24 02:11:04;;;;;;;1.25;0.70;;;12.50;99.90;;;;;;4991852;28;20426;-75
2023/04/24 02:13:29;;;;;;;1.08;0.50;;;12.40;99.90;;;;;;4993590;28;20061;-75
2023/04/24 02:15:55;;;;;;;1.00;0.60;;;12.40;99.90;;;;;;4991690;28;20026;-75
2023/04/24 02:18:22;;;;;;;0.55;0.50;;;12.40;99.90;;;;;;4992620;28;20433;-75
2023/04/24 02:20:48;;;;;;;1.00;0.30;;;12.50;99.90;;;;;;4992963;28;20487;-75
2023/04/24 02:23:13;;;;;;;1.05;0.50;;;12.50;99.90;;;;;;4993663;28;20038;-75
2023/04/24 02:25:39;;;;;;;0.73;0.50;;;12.50;99.90;;;;;;4993400;28;20038;-75
2023/04/24 02:28:04;;;;;;;1.08;0.60;;;12.50;99.90;;;;;;4992792;28;20660;-75
2023/04/24 02:30:30;;;;;;;4.55;0.77;;;12.50;99.90;;;;;;4993247;28;20037;-75
2023/04/24 02:32:56;;;;;;;2.15;0.50;;;12.50;99.90;;;;;;4992551;28;20037;-75
2023/04/24 02:35:21;;;;;;;1.50;0.50;;;12.50;99.90;;;;;;4992270;28;20019;-75
2023/04/24 02:37:47;;;;;;;0.63;0.45;;;12.50;99.90;;;;;;4993030;28;20058;-75
2023/04/24 02:40:13;;;;;;;1.80;0.60;;;12.50;99.90;;;;;;4991743;28;20034;-75
2023/04/24 02:42:38;;;;;;;1.23;0.50;;;12.60;99.90;;;;;;4992127;28;20096;-75
2023/04/24 02:45:04;;;;;;;0.85;0.57;;;12.60;99.90;;;;;;4992732;28;20030;-75
2023/04/24 02:47:30;;;;;;;1.00;0.55;;;12.50;99.90;;;;;;4993324;28;20398;-75
2023/04/24 02:49:56;;;;;;;1.15;0.60;;;12.60;99.90;;;;;;4991404;28;20081;-75
2023/04/24 02:52:21;;;;;;;1.90;0.98;;;12.50;99.90;;;;;;4993242;28;20034;-75
2023/04/24 02:54:47;;;;;;;1.65;0.52;;;12.50;99.90;;;;;;4992429;28;20379;-75
2023/04/24 02:57:12;;;;;;;0.75;0.50;;;12.50;99.90;;;;;;4996495;28;20026;-75
2023/04/24 02:59:38;;;;;;;2.97;0.85;;;12.50;99.90;;;;;;4995847;28;20072;-75
2023/04/24 03:02:04;;;;;;;0.90;0.65;;;12.50;99.90;;;;;;4995364;28;20077;-75
2023/04/24 03:04:29;;;;;;;2.65;1.20;;;12.40;99.90;;;;;;4997071;28;20530;-75
2023/04/24 03:06:55;;;;;;;1.60;0.75;;;12.40;99.90;;;;;;4996385;28;20034;-75
2023/04/24 03:09:21;;;;;;;2.00;0.52;;;12.30;99.90;;;;;;4996858;28;20034;-75
2023/04/24 03:11:48;;;;;;;1.40;0.65;;;12.30;99.90;;;;;;4997041;28;20034;-75
2023/04/24 03:14:14;;;;;;;0.98;0.70;;;12.30;99.90;;;;;;4995050;28;20436;-75
2023/04/24 03:16:39;;;;;;;1.90;0.73;;;12.30;99.90;;;;;;4995548;28;20061;-75
2023/04/24 03:19:05;;;;;;;2.92;0.60;;;12.20;99.90;;;;;;4994676;28;20049;-75
2023/04/24 03:21:30;;;;;;;1.08;0.88;;;12.20;99.90;;;;;;4995500;28;20062;-75
2023/04/24 03:23:56;;;;;;;1.88;0.80;;;12.10;99.90;;;;;;4996232;28;20030;-75
2023/04/24 03:26:22;;;;;;;1.10;0.80;;;12.10;99.90;;;;;;4995817;28;20471;-75
2023/04/24 03:28:47;;;;;;;3.45;0.98;;;11.90;99.90;;;;;;4996507;28;20030;-75
2023/04/24 03:31:13;;;;;;;3.28;1.02;;;11.70;99.90;;;;;;4995972;28;20456;-75
2023/04/24 03:33:38;;;;;;;2.58;1.10;;;11.70;99.90;;;;;;4995538;28;20085;-75
2023/04/24 03:36:04;;;;;;;3.03;1.50;;;11.60;99.90;;;;;;4994807;28;20030;-75
2023/04/24 03:38:30;;;;;;;1.15;0.90;;;11.70;99.90;;;;;;4996482;28;20037;-75
2023/04/24 03:40:56;;;;;;;2.70;1.20;;;11.80;99.90;;;;;;4994571;28;20038;-75
2023/04/24 03:43:21;;;;;;;2.10;1.00;;;11.80;99.90;;;;;;4995208;28;20375;-75
2023/04/24 03:45:47;;;;;;;1.55;0.80;;;11.80;99.90;;;;;;4996347;28;20030;-75
2023/04/24 03:48:12;;;;;;;2.25;0.80;;;11.90;99.90;;;;;;4994054;28;20050;-75
2023/04/24 03:50:38;;;;;;;2.72;0.75;;;11.90;99.90;;;;;;4995030;28;20117;-75
2023/04/24 03:53:03;;;;;;;2.38;0.80;;;11.90;99.90;;;;;;4994441;28;20030;-75
2023/04/24 03:55:29;;;;;;;0.88;0.63;;;11.90;99.90;;;;;;4995078;28;20034;-75
2023/04/24 03:57:55;;;;;;;0.75;0.50;;;11.90;99.90;;;;;;4995531;28;20030;-75
2023/04/24 04:00:21;;;;;;;0.70;0.63;;;11.80;99.90;;;;;;4996025;28;20471;-75
2023/04/24 04:02:46;;;;;;;0.70;0.70;;;11.80;99.90;;;;;;4994782;28;20119;-75
2023/04/24 04:05:12;;;;;;;2.03;0.73;;;11.80;99.90;;;;;;4994239;28;20342;-75
2023/04/24 04:07:38;;;;;;;0.55;0.52;;;11.80;99.90;;;;;;4993679;28;20030;-75
2023/04/24 04:10:03;;;;;;;0.80;0.80;;;11.80;99.90;;;;;;4995321;28;20034;-75
2023/04/24 04:12:29;;;;;;;1.45;0.70;;;11.70;99.90;;;;;;4994277;28;20403;-75
2023/04/24 04:14:55;;;;;;;2.05;0.60;;;11.70;99.90;;;;;;4995381;28;20022;-75
2023/04/24 04:17:21;;;;;;;2.35;0.88;;;11.70;99.90;;;;;;4995708;28;20082;-75
2023/04/24 04:19:46;;;;;;;1.85;0.80;;;11.60;99.90;;;;;;4994570;28;20062;-75
2023/04/24 04:22:12;;;;;;;1.15;0.80;;;11.60;99.90;;;;;;4993858;28;20023;-76
2023/04/24 04:24:37;;;;;;;2.40;1.05;;;11.60;99.90;;;;;;4995412;28;20077;-75
2023/04/24 04:27:04;;;;;;;0.93;0.75;;;11.50;99.90;;;;;;4995044;28;20029;-74
2023/04/24 04:29:31;;;;;;;2.53;0.85;;;11.50;99.90;;;;;;4994436;28;20038;-75
2023/04/24 04:31:57;;;;;;;2.92;1.13;;;11.40;99.90;;;;;;4993603;28;20030;-75
2023/04/24 04:34:23;;;;;;;1.58;0.95;;;11.40;99.90;;;;;;4995375;28;20356;-75
2023/04/24 04:36:48;;;;;;;2.17;1.00;;;11.40;99.90;;;;;;4994388;28;20030;-75
2023/04/24 04:39:16;;;;;;;1.88;1.10;;;11.40;99.90;;;;;;4994655;28;20294;-75
2023/04/24 04:41:42;;;;;;;1.80;1.05;;;11.30;99.90;;;;;;4995411;28;20114;-75
2023/04/24 04:44:08;;;;;;;1.20;1.02;;;11.20;99.90;;;;;;4994724;28;20114;-75
2023/04/24 04:46:36;;;;;;;2.20;1.30;;;11.20;99.90;;;;;;4993878;28;20029;-75
2023/04/24 04:49:02;;;;;;;1.13;1.02;;;11.20;99.90;;;;;;4993964;28;20074;-75
2023/04/24 04:51:27;;;;;;;1.25;1.15;;;11.10;99.90;;;;;;4995053;28;20444;-75
2023/04/24 04:53:53;;;;;;;1.20;1.10;;;11.10;99.90;;;;;;4995099;28;20032;-75
2023/04/24 04:56:19;;;;;;;1.35;1.10;;;11.00;99.90;;;;;;4994616;28;20326;-75
2023/04/24 04:58:44;;;;;;;0.95;0.90;;;11.10;99.90;;;;;;4995001;28;20113;-75
2023/04/24 05:01:10;;;;;;;1.58;1.20;;;11.10;99.90;;;;;;4993167;28;20022;-75
2023/04/24 05:03:36;;;;;;;1.75;1.38;;;11.10;99.90;;;;;;4993755;28;20364;-75
2023/04/24 05:06:02;;;;;;;3.17;1.23;;;11.10;99.90;;;;;;4993002;28;20027;-74
2023/04/24 05:08:28;;;;;;;3.47;1.67;;;11.10;99.90;;;;;;4994660;28;20088;-75
2023/04/24 05:10:54;;;;;;;2.58;1.30;;;11.00;99.90;;;;;;4994492;28;20034;-75
2023/04/24 05:13:20;;;;;;;2.33;1.30;;;11.10;99.90;;;;;;4992903;28;20026;-75
2023/04/24 05:15:46;;;;;;;2.03;1.30;;;11.20;99.90;;;;;;4993592;28;20038;-75
2023/04/24 05:18:11;;;;;;;2.17;1.60;;;11.20;99.90;;;;;;4991828;28;20479;-75
2023/04/24 05:20:37;;;;;;;1.77;1.50;;;11.20;99.90;;;;;;4994548;28;20029;-75
2023/04/24 05:23:03;;;;;;;2.25;1.73;;;11.20;99.90;;;;;;4993972;28;20030;-75
2023/04/24 05:25:28;;;;;;;2.40;1.52;;;11.30;99.90;;;;;;4993305;28;20034;-75
2023/04/24 05:27:54;;;;;;;2.08;1.60;;;11.30;99.90;;;;;;4994343;28;20026;-75
2023/04/24 05:30:20;;;;;;;2.53;1.77;;;11.30;99.90;;;;;;4992185;28;20478;-75
2023/04/24 05:32:45;;;;;;;2.42;1.70;;;11.40;99.90;;;;;;4992986;28;20033;-76
2023/04/24 05:35:11;;;;;;;3.65;1.40;;;11.40;99.90;;;;;;4992542;28;20038;-75
2023/04/24 05:37:37;;;;;;;2.67;1.73;;;11.40;99.90;;;;;;4994095;28;20026;-75
2023/04/24 05:40:05;;;;;;;1.92;1.40;;;11.40;99.90;;;;;;4993690;28;20038;-74
2023/04/24 05:42:31;;;;;;;3.10;1.45;;;11.50;99.90;;;;;;4992517;28;20085;-75
2023/04/24 05:44:56;;;;;;;1.73;1.30;;;11.50;99.90;;;;;;4994071;28;20082;-75
2023/04/24 05:47:22;;;;;;;2.10;1.20;;;11.50;99.90;;;;;;4991995;28;20399;-75
2023/04/24 05:49:48;;;;;;;4.65;1.40;;;11.40;99.90;;;;;;4993911;28;20035;-75
2023/04/24 05:52:13;;;;;;;1.60;1.10;;;11.40;99.90;;;;;;4992072;28;20076;-75
2023/04/24 05:54:39;;;;;;;1.45;0.95;;;11.40;99.90;;;;;;4992632;28;20049;-75
2023/04/24 05:57:07;;;;;;;1.45;1.00;;;11.40;99.90;;;;;;4993247;28;20030;-75
2023/04/24 05:59:41;;;;;;;2.42;1.10;;;11.40;99.90;;;;;;4992860;28;20390;-75
2023/04/24 06:02:07;;;;;;;2.85;1.23;;;11.50;99.90;;;;;;4993279;28;20023;-75
2023/04/24 06:04:33;;;;;;;1.88;0.95;;;11.40;99.90;;;;;;4992532;28;20030;-75
2023/04/24 06:06:59;;;;;;;2.22;1.02;;;11.40;99.90;;;;;;4992403;28;20118;-75
2023/04/24 06:09:25;;;;;;;2.63;1.40;;;11.40;99.90;;;;;;4992711;28;20066;-75
2023/04/24 06:11:52;;;;;;;1.55;1.17;;;11.40;99.90;;;;;;4993850;28;20042;-75
2023/04/24 06:14:18;;;;;;;3.78;1.05;;;11.50;99.90;;;;;;4993121;28;20487;-75
2023/04/24 06:16:44;;;;;;;1.83;1.23;;;11.50;99.90;;;;;;4992763;28;20034;-75
2023/04/24 06:19:10;;;;;;;2.65;1.30;;;11.50;99.90;;;;;;4991911;28;20391;-75
2023/04/24 06:21:35;;;;;;;2.28;0.93;;;11.50;99.90;;;;;;4992431;28;20038;-75
2023/04/24 06:24:01;;;;;;;1.10;1.00;;;11.60;99.90;;;;;;4992130;28;20030;-75
2023/04/24 06:26:27;;;;;;;1.33;1.10;;;11.50;99.90;;;;;;4992889;28;20431;-75
2023/04/24 06:28:56;;;;;;;2.58;1.00;;;11.50;99.90;;;;;;4993021;28;20031;-75
2023/04/24 06:31:22;;;;;;;1.50;1.00;;;11.50;99.90;;;;;;4992550;28;20575;-75
2023/04/24 06:33:49;;;;;;;1.65;1.10;;;11.40;99.90;;;;;;4993483;28;20080;-75
2023/04/24 06:36:15;;;;;;;2.67;1.20;;;11.50;99.90;;;;;;4991372;28;20022;-75
2023/04/24 06:38:41;;;;;;;2.55;1.40;;;11.40;99.90;;;;;;4992085;28;20030;-75
2023/04/24 06:41:07;;;;;;;3.80;1.20;;;11.40;99.90;;;;;;4992726;28;20345;-75
2023/04/24 06:43:32;;;;;;;1.38;1.20;;;11.40;99.90;;;;;;4992283;28;20113;-75
2023/04/24 06:46:00;;;;;;;2.50;1.40;;;11.40;99.90;;;;;;4991977;28;20030;-75
2023/04/24 06:48:25;;;;;;;2.70;1.25;;;11.40;99.90;;;;;;4992146;28;20054;-74
2023/04/24 06:50:52;;;;;;;3.22;1.40;;;11.40;99.90;;;;;;4992043;28;20031;-75
2023/04/24 06:53:18;;;;;;;3.03;1.33;;;11.50;99.90;;;;;;4992517;28;20464;-75
2023/04/24 06:55:45;;;;;;;1.95;1.52;;;11.40;99.90;;;;;;4992900;28;20022;-74
2023/04/24 06:58:11;;;;;;;2.13;1.30;;;11.40;99.90;;;;;;4992085;28;20030;-75
2023/04/24 07:00:37;;;;;;;2.40;1.20;;;11.60;99.90;;;;;;4992864;28;20403;-75
2023/04/24 07:03:05;;;;;;;1.77;1.30;;;11.60;99.90;;;;;;4992769;28;20488;-75
2023/04/24 07:05:30;;;;;;;3.05;1.73;;;11.60;99.90;;;;;;4992378;28;20061;-75
2023/04/24 07:07:58;;;;;;;1.83;1.10;;;11.60;99.90;;;;;;4991406;28;20058;-75
2023/04/24 07:10:24;;;;;;;2.67;1.38;;;11.70;99.90;;;;;;4990547;28;20299;-74
2023/04/24 07:12:50;;;;;;;1.80;1.30;;;11.80;99.90;;;;;;4992775;28;20121;-74
2023/04/24 07:15:16;;;;;;;2.50;1.30;;;11.90;99.90;;;;;;4991942;28;20113;-74
2023/04/24 07:17:44;;;;;;;3.78;1.65;;;11.80;99.90;;;;;;4992289;28;20093;-74
2023/04/24 07:20:10;;;;;;;3.05;1.30;;;11.80;99.90;;;;;;4990789;28;20439;-74
2023/04/24 07:22:37;;;;;;;6.18;1.33;;;11.80;99.90;;;;;;4991436;28;20472;-74
2023/04/24 07:25:03;;;;;;;1.95;1.27;;;11.80;99.90;;;;;;4973933;28;20468;-75
2023/04/24 07:27:29;;;;;;;2.00;1.30;;;11.80;99.90;;;;;;4996580;28;20035;-74
2023/04/24 07:29:54;;;;;;;3.28;1.40;;;11.90;99.90;;;;;;4992478;28;20026;-75
2023/04/24 07:32:20;;;;;;;2.92;1.20;;;11.90;99.90;;;;;;4992195;28;20022;-74
2023/04/24 07:34:45;;;;;;;3.05;1.10;;;11.90;99.90;;;;;;5007659;28;20108;-75
2023/04/24 07:37:11;;;;;;;2.65;1.10;;;12.00;99.90;;;;;;5007183;28;20165;-75
2023/04/24 07:39:37;;;;;;;1.63;1.08;;;12.00;99.90;;;;;;4992737;28;20385;-75
2023/04/24 07:42:03;;;;;;;1.45;0.85;;;12.00;99.90;;;;;;4993331;28;20038;-74
2023/04/24 07:44:28;;;;;;;1.50;1.15;;;12.00;99.90;;;;;;4994042;28;20026;-75
2023/04/24 07:46:55;;;;;;;3.25;1.23;;;12.10;99.90;;;;;;4995983;28;20037;-75
2023/04/24 07:49:21;;;;;;;1.35;0.80;;;12.10;99.90;;;;;;4995386;28;20030;-74
2023/04/24 07:51:46;;;;;;;1.73;0.80;;;11.90;99.90;;;;;;5010819;28;20129;-75
2023/04/24 07:54:12;;;;;;;1.10;1.00;;;11.90;99.90;;;;;;4994024;28;20085;-74
2023/04/24 07:56:38;;;;;;;2.25;0.70;;;11.90;99.90;;;;;;4989099;28;20186;-74
2023/04/24 07:59:04;;;;;;;1.95;0.70;;;11.90;99.90;;;;;;5006299;28;20429;-74
2023/04/24 08:01:30;;;;;;;3.33;0.93;;;11.70;99.90;;;;;;4993628;28;20105;-75
2023/04/24 08:03:56;;;;;;;1.65;0.80;;;11.50;99.90;;;;;;4993976;28;20231;-74
2023/04/24 08:06:22;;;;;;;2.38;0.77;;;11.30;99.90;;;;;;4993509;28;20498;-74
2023/04/24 08:08:47;;;;;;;2.28;0.90;;;11.20;99.90;;;;;;4994880;28;20436;-74
2023/04/24 08:11:13;;;;;;;0.98;0.80;;;11.10;99.90;;;;;;4993257;28;20064;-74
2023/04/24 08:13:39;;;;;;;1.05;0.93;;;11.10;99.90;;;;;;4994667;28;20101;-74
2023/04/24 08:16:04;;;;;;;1.75;1.05;;;11.10;99.90;;;;;;4995119;28;20031;-74
2023/04/24 08:18:30;;;;;;;2.38;0.82;;;11.10;99.90;;;;;;4993130;28;20069;-75
2023/04/24 08:21:01;;;;;;;1.20;0.70;;;11.20;99.90;;;;;;4994675;28;20073;-74
2023/04/24 08:23:26;;;;;;;2.05;0.93;;;11.20;99.90;;;;;;4992964;28;20507;-74
2023/04/24 08:25:52;;;;;;;3.20;1.17;;;11.30;99.90;;;;;;4994818;28;20058;-74
2023/04/24 08:28:20;;;;;;;3.08;1.55;;;11.30;99.90;;;;;;4975534;28;20101;-74
2023/04/24 08:30:47;;;;;;;2.92;1.10;;;11.30;99.90;;;;;;4985445;28;20030;-75
2023/04/24 08:33:13;;;;;;;1.25;0.85;;;11.40;99.90;;;;;;4992685;28;20026;-74
2023/04/24 08:35:39;;;;;;;2.08;1.02;;;11.50;99.90;;;;;;4994278;28;20038;-75
2023/04/24 08:38:05;;;;;;;1.95;0.90;;;11.50;99.90;;;;;;4994592;28;20030;-75
2023/04/24 08:40:34;;;;;;;3.38;0.85;;;11.50;99.90;;;;;;4992363;28;20034;-74
2023/04/24 08:43:00;;;;;;;1.73;0.80;;;11.40;99.90;;;;;;4994399;28;20088;-75
2023/04/24 08:45:26;;;;;;;2.10;0.90;;;11.40;99.90;;;;;;4992103;28;20038;-74
2023/04/24 08:47:55;;;;;;;1.33;0.90;;;11.50;99.90;;;;;;4994105;28;20049;-74
2023/04/24 08:50:22;;;;;;;2.45;0.93;;;11.50;99.90;;;;;;4993501;28;20503;-75
2023/04/24 08:52:50;;;;;;;2.85;1.20;;;11.50;99.90;;;;;;4992934;28;20368;-75
2023/04/24 08:55:20;;;;;;;2.65;0.88;;;11.60;99.90;;;;;;4993501;28;20041;-75
2023/04/24 08:57:49;;;;;;;2.35;1.15;;;11.70;99.90;;;;;;4992721;28;20033;-76
2023/04/24 09:00:16;;;;;;;1.20;1.00;;;11.80;99.90;;;;;;4991960;28;20038;-74
2023/04/24 09:02:46;;;;;;;2.25;0.90;;;11.90;99.90;;;;;;4993935;28;20153;-75
2023/04/24 09:05:13;;;;;;;1.50;1.20;;;12.10;99.90;;;;;;4992177;28;20165;-75
2023/04/24 09:07:41;;;;;;;1.30;1.17;;;12.10;99.90;;;;;;4993068;28;20045;-75
2023/04/24 09:10:07;;;;;;;3.70;1.05;;;12.10;99.90;;;;;;4993631;28;20070;-75
2023/04/24 09:12:34;;;;;;;6.03;1.30;;;12.00;99.90;;;;;;4991317;28;20030;-74
2023/04/24 09:15:03;;;;;;;1.35;1.20;;;12.00;99.90;;;;;;4992543;28;20057;-74
2023/04/24 09:17:29;;;;;;;1.45;0.95;;;12.00;99.90;;;;;;4987596;28;20053;-74
2023/04/24 09:19:55;;;;;;;2.35;1.10;;;11.90;99.90;;;;;;4981118;28;20462;-74
2023/04/24 09:22:21;;;;;;;1.67;1.40;;;11.90;99.90;;;;;;4994198;28;20033;-75
2023/04/24 09:24:48;;;;;;;1.67;1.10;;;11.90;99.90;;;;;;5008342;28;20030;-75
2023/04/24 09:27:16;;;;;;;2.97;1.20;;;11.80;99.90;;;;;;5008162;28;20383;-75
2023/04/24 09:30:02;;;;;;;2.40;1.30;;;11.90;99.90;;;;;;4992082;28;20038;-75
2023/04/24 09:32:29;;;;;;;1.92;1.48;;;12.00;99.90;;;;;;5007293;28;20118;-74
2023/04/24 09:35:11;;;;;;;3.22;2.08;;;12.00;99.90;;;;;;4992154;28;20445;-74
2023/04/24 09:37:38;;;;;;;2.47;1.93;;;11.90;99.90;;;;;;4993566;28;20022;-75
2023/04/24 09:40:18;;;;;;;4.88;1.90;;;11.90;99.90;;;;;;4992402;28;20077;-75
2023/04/24 09:42:46;;;;;;;3.22;1.90;;;11.90;99.90;;;;;;4991858;28;20062;-74
2023/04/24 09:45:12;;;;;;;3.13;2.22;;;12.00;99.90;;;;;;4991529;28;20034;-75
2023/04/24 09:47:41;;;;;;;3.08;1.50;;;12.10;99.90;;;;;;4991837;28;20100;-75
2023/04/24 09:50:15;;;;;;;5.35;1.92;;;12.20;99.90;;;;;;4993301;28;20470;-74
2023/04/24 09:53:05;;;;;;;3.17;1.70;;;12.30;99.90;;;;;;4992003;28;20361;-74
2023/04/24 09:55:31;;;;;;;2.28;1.67;;;12.20;99.90;;;;;;4985885;28;20258;-74
2023/04/24 09:58:04;;;;;;;4.03;1.80;;;12.20;99.90;;;;;;4991934;28;20476;-75
2023/04/24 10:00:32;;;;;;;4.43;1.95;;;12.30;99.90;;;;;;4992024;28;20431;-75
2023/04/24 10:02:59;;;;;;;2.80;1.80;;;12.60;99.90;;;;;;4978299;28;20030;-75
2023/04/24 10:05:34;;;;;;;1.70;1.48;;;12.80;99.90;;;;;;4991856;28;20392;-75
2023/04/24 10:08:09;;;;;;;2.03;1.60;;;12.90;99.90;;;;;;4993462;28;20070;-74
2023/04/24 10:10:43;;;;;;;4.00;1.40;;;12.90;99.90;;;;;;4991064;28;20038;-74
2023/04/24 10:13:14;;;;;;;2.45;1.65;;;12.70;99.90;;;;;;4991870;28;20066;-74
2023/04/24 10:15:41;;;;;;;3.83;1.65;;;12.60;99.90;;;;;;4992873;28;20053;-75
2023/04/24 10:18:08;;;;;;;3.10;1.50;;;12.50;99.90;;;;;;4989305;28;21402;-74
2023/04/24 10:20:35;;;;;;;3.10;1.30;;;12.50;99.90;;;;;;5007370;28;20088;-75
2023/04/24 10:23:01;;;;;;;4.60;1.20;;;12.40;99.90;;;;;;4991682;28;20472;-75
2023/04/24 10:25:32;;;;;;;1.77;1.15;;;12.30;99.90;;;;;;4990831;28;20096;-74
2023/04/24 10:27:59;;;;;;;1.90;1.23;;;12.30;99.90;;;;;;4991448;28;20030;-75
2023/04/24 10:30:27;;;;;;;3.72;2.13;;;12.30;99.90;;;;;;4992279;28;20038;-74
2023/04/24 10:32:53;;;;;;;4.03;1.40;;;12.30;99.90;;;;;;4973062;28;20023;-75
2023/04/24 10:35:22;;;;;;;2.92;1.30;;;12.20;99.90;;;;;;4982252;28;20022;-74
2023/04/24 10:38:09;;;;;;;3.80;1.80;;;12.20;99.90;;;;;;4991438;28;20027;-75
2023/04/24 10:40:36;;;;;;;2.20;1.75;;;12.10;99.90;;;;;;4990906;28;20037;-75
2023/04/24 10:43:11;;;;;;;2.58;1.70;;;12.20;99.90;;;;;;4991592;28;20034;-75
2023/04/24 10:45:37;;;;;;;4.32;1.63;;;12.30;99.90;;;;;;4990857;28;20379;-75
2023/04/24 10:48:13;;;;;;;5.40;1.75;;;12.30;99.90;;;;;;4991104;28;20101;-75
2023/04/24 10:50:50;;;;;;;2.65;2.13;;;12.40;99.90;;;;;;4992655;28;20034;-75
2023/04/24 10:53:26;;;;;;;2.88;2.00;;;12.50;99.90;;;;;;4989499;28;20138;-74
2023/04/24 10:56:06;;;;;;;3.70;1.90;;;12.60;99.90;;;;;;4990808;28;20494;-75
2023/04/24 10:58:46;;;;;;;3.63;2.35;;;12.60;99.90;;;;;;4992116;28;20034;-75
2023/04/24 11:01:38;;;;;;;2.25;1.55;;;12.50;99.90;;;;;;4991428;28;20034;-75
2023/04/24 11:04:03;;;;;;;3.15;1.80;;;12.50;99.90;;;;;;4989401;28;20093;-75
2023/04/24 11:06:36;;;;;;;3.85;2.00;;;12.50;99.90;;;;;;4991757;28;20415;-75
2023/04/24 11:09:12;;;;;;;3.78;1.83;;;12.40;99.90;;;;;;4992533;28;20030;-75
2023/04/24 11:11:43;;;;;;;2.75;1.90;;;12.40;99.90;;;;;;4992248;28;20118;-75
2023/04/24 11:14:10;;;;;;;2.95;1.90;;;12.40;99.90;;;;;;4991034;28;20030;-75
2023/04/24 11:16:38;;;;;;;3.17;2.10;;;12.40;99.90;;;;;;4992001;28;20066;-75
2023/04/24 11:19:09;;;;;;;3.05;2.22;;;12.30;99.90;;;;;;4994986;28;20441;-75
2023/04/24 11:21:41;;;;;;;3.13;2.20;;;12.20;99.90;;;;;;4994215;28;20019;-75
2023/04/24 11:24:35;;;;;;;3.70;2.15;;;12.20;99.90;;;;;;4995889;28;20026;-75
2023/04/24 11:27:06;;;;;;;2.22;1.52;;;12.20;99.90;;;;;;4995640;28;20027;-75
2023/04/24 11:30:00;;;;;;;3.33;2.00;;;12.10;99.90;;;;;;4993640;28;20105;-74
2023/04/24 11:32:28;;;;;;;2.35;1.80;;;12.20;99.90;;;;;;4974390;28;20129;-74
2023/04/24 11:35:05;;;;;;;2.83;1.83;;;12.30;99.90;;;;;;4995781;28;20027;-75
2023/04/24 11:37:38;;;;;;;2.53;1.70;;;12.30;99.90;;;;;;4993499;28;20121;-75
2023/04/24 11:40:06;;;;;;;2.50;2.30;;;12.60;99.90;;;;;;4994284;28;20030;-75
2023/04/24 11:42:40;;;;;;;4.38;2.05;;;12.70;99.90;;;;;;4977354;28;20027;-75
2023/04/24 11:45:13;;;;;;;2.67;1.85;;;12.90;99.90;;;;;;4995834;28;20116;-75
2023/04/24 11:47:39;;;;;;;2.55;1.65;;;12.90;99.90;;;;;;4994570;28;20138;-75
2023/04/24 11:50:08;;;;;;;2.28;1.80;;;12.80;99.90;;;;;;4993975;28;20468;-75
2023/04/24 11:52:37;;;;;;;2.22;1.75;;;12.50;99.90;;;;;;4974156;28;20035;-74
2023/04/24 11:55:03;;;;;;;2.85;2.08;;;12.50;99.90;;;;;;4982650;28;20026;-75
2023/04/24 11:57:34;;;;;;;4.20;2.22;;;12.50;99.90;;;;;;4993203;28;20027;-75
2023/04/24 12:00:00;;;;;;;3.28;1.98;;;12.50;99.90;;;;;;4995535;28;20036;-74
2023/04/24 12:02:27;;;;;;;2.63;2.10;;;12.50;99.90;;;;;;4994876;28;20033;-75
2023/04/24 12:04:55;;;;;;;2.67;2.20;;;12.60;99.90;;;;;;4995420;28;20020;-75
2023/04/24 12:07:23;;;;;;;2.63;1.88;;;12.90;99.90;;;;;;4994500;28;20030;-75
2023/04/24 12:09:59;;;;;;;3.83;2.17;;;13.20;99.90;;;;;;4993938;28;20076;-75
2023/04/24 12:12:27;;;;;;;3.60;2.22;;;13.30;99.90;;;;;;4994794;28;20034;-75
2023/04/24 12:14:55;;;;;;;2.63;2.25;;;13.40;99.90;;;;;;4995170;28;20030;-75
2023/04/24 12:17:31;;;;;;;4.25;2.20;;;13.20;99.90;;;;;;4994263;28;20038;-75
2023/04/24 12:20:02;;;;;;;3.70;2.22;;;13.20;99.90;;;;;;4993897;28;20113;-75
2023/04/24 12:22:29;;;;;;;4.25;2.30;;;13.20;99.90;;;;;;4993276;28;20423;-75
2023/04/24 12:25:00;;;;;;;4.00;2.10;;;13.40;99.90;;;;;;4994991;28;20030;-75
2023/04/24 12:27:26;;;;;;;3.73;2.20;;;13.50;99.90;;;;;;4992376;28;20026;-75
2023/04/24 12:30:03;;;;;;;3.70;1.98;;;13.80;99.90;;;;;;4993594;28;20280;-75
2023/04/24 12:32:28;;;;;;;4.28;2.20;;;13.80;99.90;;;;;;4994234;28;20037;-75
2023/04/24 12:34:55;;;;;;;4.00;2.03;;;13.70;99.90;;;;;;4993428;28;20026;-75
2023/04/24 12:37:23;;;;;;;4.20;2.25;;;13.60;99.90;;;;;;4992037;28;20084;-75
2023/04/24 12:40:03;;;;;;;2.60;1.80;;;13.60;99.90;;;;;;4994574;28;20066;-74
2023/04/24 12:42:30;;;;;;;3.97;2.40;;;13.70;99.90;;;;;;4992694;28;20033;-75
2023/04/24 12:45:06;;;;;;;5.68;2.30;;;13.60;99.90;;;;;;4993521;28;20125;-75
2023/04/24 12:47:33;;;;;;;4.22;2.75;;;13.70;99.90;;;;;;4993706;28;20054;-75
2023/04/24 12:49:59;;;;;;;3.10;2.53;;;13.60;99.90;;;;;;4993201;28;20387;-75